createdAt,value
2023-04-19T00:00:59.253Z,15.23
2023-04-19T00:03:26.271Z,15.47
2023-04-19T00:05:54.240Z,15.49
2023-04-19T00:08:21.429Z,14.95
2023-04-19T00:10:47.801Z,15.33
2023-04-19T00:13:14.293Z,15.36
2023-04-19T00:15:40.773Z,15.25
2023-04-19T00:18:07.447Z,15.40
2023-04-19T00:20:33.892Z,15.44
2023-04-19T00:23:00.420Z,14.84
2023-04-19T00:25:28.347Z,15.52
2023-04-19T00:27:54.723Z,14.90
2023-04-19T00:30:21.240Z,15.40
2023-04-19T00:32:47.697Z,15.36
2023-04-19T00:35:14.561Z,14.70
2023-04-19T00:37:40.929Z,14.72
2023-04-19T00:40:07.994Z,15.37
2023-04-19T00:42:34.373Z,15.51
2023-04-19T00:45:00.742Z,15.17
2023-04-19T00:47:27.221Z,14.63
2023-04-19T00:49:53.657Z,14.88
2023-04-19T00:52:21.716Z,15.42
2023-04-19T00:54:48.807Z,15.26
2023-04-19T00:57:16.568Z,15.48
2023-04-19T00:59:43.099Z,15.26
2023-04-19T01:02:09.912Z,14.78
2023-04-19T01:04:36.866Z,15.21
2023-04-19T01:07:03.321Z,15.13
2023-04-19T01:09:29.757Z,15.41
2023-04-19T01:11:56.127Z,14.81
2023-04-19T01:14:22.468Z,15.07
2023-04-19T01:16:49.071Z,14.97
2023-04-19T01:19:16.650Z,15.23
2023-04-19T01:21:43.738Z,14.60
2023-04-19T01:24:10.140Z,14.79
2023-04-19T01:26:36.538Z,14.96
2023-04-19T01:29:02.988Z,15.25
2023-04-19T01:31:29.479Z,15.11
2023-04-19T01:33:55.940Z,14.89
2023-04-19T01:36:22.261Z,15.20
2023-04-19T01:38:49.908Z,14.90
2023-04-19T01:41:16.369Z,14.99
2023-04-19T01:43:42.716Z,15.33
2023-04-19T01:46:09.101Z,15.32
2023-04-19T01:48:35.459Z,14.74
2023-04-19T01:51:01.793Z,15.21
2023-04-19T01:53:28.207Z,15.05
2023-04-19T01:55:55.235Z,15.11
2023-04-19T01:58:21.721Z,15.08
2023-04-19T02:00:48.124Z,15.07
2023-04-19T02:03:14.671Z,15.12
2023-04-19T02:05:41.249Z,14.87
2023-04-19T02:08:07.624Z,15.01
2023-04-19T02:10:33.938Z,15.14
2023-04-19T02:13:00.290Z,15.00
2023-04-19T02:15:26.617Z,14.59
2023-04-19T02:17:53.140Z,14.74
2023-04-19T02:20:19.577Z,14.44
2023-04-19T02:22:47.747Z,14.91
2023-04-19T02:25:16.420Z,14.19
2023-04-19T02:27:42.750Z,14.78
2023-04-19T02:30:09.598Z,14.85
2023-04-19T02:32:36.081Z,14.85
2023-04-19T02:35:02.528Z,14.89
2023-04-19T02:37:28.860Z,14.45
2023-04-19T02:39:55.282Z,14.64
2023-04-19T02:42:21.678Z,14.60
2023-04-19T02:44:47.999Z,14.51
2023-04-19T02:47:14.358Z,14.07
2023-04-19T02:49:41.481Z,14.03
2023-04-19T02:52:08.450Z,14.64
2023-04-19T02:54:34.930Z,14.49
2023-04-19T02:57:01.764Z,14.73
2023-04-19T02:59:28.130Z,14.79
2023-04-19T03:01:54.549Z,14.75
2023-04-19T03:04:22.206Z,14.63
2023-04-19T03:06:48.622Z,14.85
2023-04-19T03:09:15.265Z,14.82
2023-04-19T03:11:41.741Z,14.80
2023-04-19T03:14:08.136Z,14.72
2023-04-19T03:16:34.586Z,14.88
2023-04-19T03:19:00.958Z,14.43
2023-04-19T03:21:29.026Z,14.86
2023-04-19T03:23:55.791Z,15.00
2023-04-19T03:26:22.185Z,14.36
2023-04-19T03:28:48.529Z,14.90
2023-04-19T03:31:14.916Z,14.37
2023-04-19T03:33:41.352Z,14.75
2023-04-19T03:36:07.994Z,14.48
2023-04-19T03:38:34.352Z,15.00
2023-04-19T03:41:00.834Z,14.91
2023-04-19T03:43:27.206Z,15.09
2023-04-19T03:45:53.578Z,14.74
2023-04-19T03:48:19.954Z,14.80
2023-04-19T03:50:46.311Z,14.75
2023-04-19T03:53:12.660Z,14.87
2023-04-19T03:55:38.970Z,14.97
2023-04-19T03:58:05.365Z,14.55
2023-04-19T04:00:31.878Z,14.39
2023-04-19T04:02:58.332Z,14.24
2023-04-19T04:05:27.804Z,14.91
2023-04-19T04:07:54.264Z,13.93
2023-04-19T04:10:20.629Z,14.84
2023-04-19T04:12:46.983Z,14.76
2023-04-19T04:15:13.334Z,14.43
2023-04-19T04:17:39.712Z,13.80
2023-04-19T04:20:07.669Z,14.38
2023-04-19T04:22:34.078Z,13.97
2023-04-19T04:25:02.142Z,14.91
2023-04-19T04:27:28.585Z,14.54
2023-04-19T04:29:56.684Z,14.12
2023-04-19T04:32:23.650Z,14.12
2023-04-19T04:34:50.424Z,14.26
2023-04-19T04:37:17.810Z,14.88
2023-04-19T04:39:44.364Z,14.71
2023-04-19T04:42:10.803Z,14.49
2023-04-19T04:44:37.426Z,14.43
2023-04-19T04:47:03.838Z,14.18
2023-04-19T04:49:30.723Z,14.35
2023-04-19T04:52:00.168Z,14.75
2023-04-19T04:54:26.642Z,14.40
2023-04-19T04:56:53.002Z,14.62
2023-04-19T04:59:19.457Z,14.75
2023-04-19T05:01:46.095Z,14.77
2023-04-19T05:04:12.567Z,14.79
2023-04-19T05:06:41.038Z,14.54
2023-04-19T05:09:08.131Z,14.23
2023-04-19T05:11:34.643Z,14.82
2023-04-19T05:14:01.157Z,14.55
2023-04-19T05:16:27.697Z,14.71
2023-04-19T05:18:54.242Z,14.78
2023-04-19T05:21:21.323Z,15.00
2023-04-19T05:23:47.890Z,14.84
2023-04-19T05:26:15.467Z,14.65
2023-04-19T05:28:42.395Z,14.60
2023-04-19T05:31:09.151Z,14.22
2023-04-19T05:33:35.617Z,14.71
2023-04-19T05:36:01.944Z,14.66
2023-04-19T05:38:28.387Z,14.92
2023-04-19T05:40:54.709Z,14.68
2023-04-19T05:43:21.867Z,14.83
2023-04-19T05:45:48.207Z,14.65
2023-04-19T05:48:14.698Z,14.21
2023-04-19T05:50:41.105Z,15.06
2023-04-19T05:53:07.499Z,15.11
2023-04-19T05:55:33.820Z,14.91
2023-04-19T05:58:00.685Z,14.45
2023-04-19T06:00:28.125Z,14.43
2023-04-19T06:02:54.733Z,14.37
2023-04-19T06:05:21.455Z,14.70
2023-04-19T06:07:55.353Z,14.85
2023-04-19T06:10:34.027Z,14.82
2023-04-19T06:13:07.488Z,14.82
2023-04-19T06:15:33.863Z,14.91
2023-04-19T06:18:00.300Z,14.97
2023-04-19T06:20:26.684Z,14.97
2023-04-19T06:22:53.154Z,15.00
2023-04-19T06:25:19.640Z,14.69
2023-04-19T06:27:46.019Z,14.94
2023-04-19T06:30:12.823Z,14.74
2023-04-19T06:32:39.308Z,14.10
2023-04-19T06:35:06.417Z,15.07
2023-04-19T06:37:33.910Z,15.09
2023-04-19T06:40:00.850Z,14.98
2023-04-19T06:42:27.490Z,14.98
2023-04-19T06:44:56.913Z,15.09
2023-04-19T06:47:23.280Z,14.77
2023-04-19T06:49:49.634Z,15.03
2023-04-19T06:52:16.195Z,14.65
2023-04-19T06:54:42.613Z,14.79
2023-04-19T06:57:08.954Z,15.13
2023-04-19T06:59:38.623Z,14.68
2023-04-19T07:02:05.082Z,14.72
2023-04-19T07:04:31.677Z,15.08
2023-04-19T07:06:58.135Z,15.18
2023-04-19T07:09:24.698Z,14.81
2023-04-19T07:11:51.330Z,14.55
2023-04-19T07:14:20.914Z,14.97
2023-04-19T07:16:47.652Z,14.58
2023-04-19T07:19:14.157Z,14.83
2023-04-19T07:21:40.522Z,14.74
2023-04-19T07:24:15.353Z,15.33
2023-04-19T07:26:42.090Z,15.34
2023-04-19T07:29:08.686Z,15.23
2023-04-19T07:31:35.570Z,15.23
2023-04-19T07:34:02.137Z,15.09
2023-04-19T07:36:28.484Z,15.06
2023-04-19T07:38:57.993Z,15.29
2023-04-19T07:41:24.423Z,15.52
2023-04-19T07:43:50.793Z,15.56
2023-04-19T07:46:17.364Z,14.87
2023-04-19T07:48:43.909Z,15.01
2023-04-19T07:51:16.353Z,15.73
2023-04-19T07:53:43.697Z,15.55
2023-04-19T07:56:12.722Z,15.18
2023-04-19T07:58:39.650Z,15.64
2023-04-19T08:01:06.082Z,15.23
2023-04-19T08:03:34.496Z,15.06
2023-04-19T08:06:02.458Z,15.09
2023-04-19T08:08:28.841Z,15.12
2023-04-19T08:10:55.322Z,15.39
2023-04-19T08:13:21.864Z,15.49
2023-04-19T08:16:13.343Z,15.09
2023-04-19T08:18:35.588Z,15.69
2023-04-19T08:21:02.049Z,15.54
2023-04-19T08:23:37.821Z,15.99
2023-04-19T08:26:11.593Z,15.83
2023-04-19T08:28:38.163Z,16.20
2023-04-19T08:31:10.047Z,16.40
2023-04-19T08:33:36.474Z,15.85
2023-04-19T08:36:02.983Z,16.30
2023-04-19T08:38:29.388Z,16.20
2023-04-19T08:40:55.840Z,16.06
2023-04-19T08:43:25.353Z,15.89
2023-04-19T08:45:53.679Z,15.94
2023-04-19T08:48:21.794Z,16.57
2023-04-19T08:51:04.519Z,16.51
2023-04-19T08:53:35.638Z,16.92
2023-04-19T08:58:46.643Z,16.59
2023-04-19T09:01:31.153Z,16.57
2023-04-19T09:04:20.721Z,16.94
2023-04-19T09:06:48.953Z,16.95
2023-04-19T09:11:55.787Z,17.55
2023-04-19T09:14:23.538Z,17.53
2023-04-19T09:16:52.022Z,16.95
2023-04-19T09:19:23.940Z,17.31
2023-04-19T09:21:53.804Z,17.50
2023-04-19T09:25:04.464Z,17.32
2023-04-19T09:27:29.404Z,17.89
2023-04-19T09:29:58.195Z,17.39
2023-04-19T09:32:25.427Z,17.03
2023-04-19T09:34:57.201Z,17.59
2023-04-19T09:39:53.776Z,17.73
2023-04-19T09:42:32.844Z,17.65
2023-04-19T09:47:36.981Z,17.45
2023-04-19T09:50:22.055Z,17.29
2023-04-19T09:52:52.256Z,17.69
2023-04-19T09:57:48.929Z,18.13
2023-04-19T10:00:16.003Z,17.90
2023-04-19T10:02:43.566Z,18.29
2023-04-19T10:05:20.716Z,17.91
2023-04-19T10:07:49.937Z,18.66
2023-04-19T10:10:21.547Z,18.50
2023-04-19T10:15:24.034Z,18.56
2023-04-19T10:17:50.908Z,18.89
2023-04-19T10:20:30.302Z,19.42
2023-04-19T10:22:57.176Z,19.06
2023-04-19T10:25:29.753Z,19.34
2023-04-19T10:27:56.387Z,19.53
2023-04-19T10:30:24.897Z,19.36
2023-04-19T10:32:59.345Z,19.26
2023-04-19T10:35:34.898Z,19.68
2023-04-19T10:38:09.822Z,19.58
2023-04-19T10:40:51.811Z,20.34
2023-04-19T10:43:19.424Z,20.27
2023-04-19T10:45:46.506Z,20.65
2023-04-19T10:48:33.237Z,21.39
2023-04-19T10:51:14.378Z,21.64
2023-04-19T10:53:44.852Z,22.41
2023-04-19T10:56:11.593Z,22.30
2023-04-19T10:59:03.028Z,22.90
2023-04-19T11:01:33.485Z,23.63
2023-04-19T11:04:00.522Z,24.61
2023-04-19T11:06:28.144Z,25.49
2023-04-19T11:08:55.075Z,24.15
2023-04-19T11:11:21.695Z,24.82
2023-04-19T11:13:48.747Z,24.77
2023-04-19T11:16:16.663Z,24.40
2023-04-19T11:18:44.740Z,24.20
2023-04-19T11:21:14.922Z,25.04
2023-04-19T11:23:41.739Z,23.53
2023-04-19T11:26:14.169Z,23.81
2023-04-19T11:28:40.888Z,24.83
2023-04-19T11:31:07.886Z,24.79
2023-04-19T11:33:35.601Z,24.42
2023-04-19T11:36:02.209Z,24.04
2023-04-19T11:38:28.905Z,22.92
2023-04-19T11:41:03.067Z,22.92
2023-04-19T11:43:36.749Z,23.76
2023-04-19T11:46:11.141Z,24.06
2023-04-19T11:48:38.745Z,23.77
2023-04-19T11:51:05.915Z,22.91
2023-04-19T11:53:33.149Z,22.71
2023-04-19T11:56:07.514Z,22.57
2023-04-19T11:58:36.025Z,22.54
2023-04-19T12:01:06.786Z,22.87
2023-04-19T12:03:35.420Z,23.31
2023-04-19T12:06:03.834Z,23.31
2023-04-19T12:08:42.764Z,23.24
2023-04-19T12:11:09.144Z,23.55
2023-04-19T12:13:36.432Z,23.54
2023-04-19T12:16:03.292Z,23.43
2023-04-19T12:18:44.383Z,23.77
2023-04-19T12:21:13.033Z,23.47
2023-04-19T12:23:39.429Z,23.00
2023-04-19T12:26:06.005Z,22.34
2023-04-19T12:28:32.378Z,22.65
2023-04-19T12:30:59.436Z,23.13
2023-04-19T12:33:25.887Z,22.99
2023-04-19T12:35:52.233Z,23.18
2023-04-19T12:38:18.589Z,23.28
2023-04-19T12:40:45.370Z,23.28
2023-04-19T12:43:11.764Z,23.60
2023-04-19T12:45:38.227Z,23.14
2023-04-19T12:48:04.842Z,23.02
2023-04-19T12:50:31.258Z,23.61
2023-04-19T12:52:57.723Z,23.63
2023-04-19T12:55:24.335Z,23.68
2023-04-19T12:57:51.014Z,24.25
2023-04-19T13:00:17.715Z,23.71
2023-04-19T13:02:44.277Z,24.39
2023-04-19T13:05:12.996Z,23.54
2023-04-19T13:07:40.789Z,24.12
2023-04-19T13:10:07.919Z,24.35
2023-04-19T13:12:37.107Z,24.94
2023-04-19T13:15:04.952Z,25.25
2023-04-19T13:17:31.695Z,24.97
2023-04-19T13:19:58.081Z,24.59
2023-04-19T13:22:24.418Z,24.03
2023-04-19T13:24:50.822Z,23.86
2023-04-19T13:27:17.368Z,23.53
2023-04-19T13:29:43.730Z,23.90
2023-04-19T13:32:12.408Z,24.52
2023-04-19T13:34:40.409Z,23.63
2023-04-19T13:37:08.311Z,24.09
2023-04-19T13:39:34.807Z,23.37
2023-04-19T13:42:02.028Z,24.56
2023-04-19T13:44:29.118Z,23.94
2023-04-19T13:46:56.224Z,23.77
2023-04-19T13:49:22.651Z,23.82
2023-04-19T13:51:50.961Z,23.70
2023-04-19T13:54:18.752Z,24.23
2023-04-19T13:56:45.629Z,24.79
2023-04-19T13:59:12.061Z,24.43
2023-04-19T14:01:38.600Z,24.31
2023-04-19T14:04:05.288Z,24.76
2023-04-19T14:06:32.683Z,24.47
2023-04-19T14:08:59.081Z,23.82
2023-04-19T14:11:25.968Z,24.08
2023-04-19T14:13:53.274Z,23.70
2023-04-19T14:16:20.970Z,24.22
2023-04-19T14:18:47.841Z,23.73
2023-04-19T14:21:14.373Z,24.08
2023-04-19T14:23:40.764Z,24.24
2023-04-19T14:26:07.574Z,24.41
2023-04-19T14:28:34.077Z,24.54
2023-04-19T14:31:00.488Z,22.98
2023-04-19T14:33:27.138Z,23.14
2023-04-19T14:35:53.833Z,23.35
2023-04-19T14:38:20.232Z,22.93
2023-04-19T14:40:46.717Z,23.58
2023-04-19T14:43:16.143Z,22.25
2023-04-19T14:45:42.596Z,22.74
2023-04-19T14:48:09.493Z,23.24
2023-04-19T14:50:35.952Z,22.55
2023-04-19T14:53:02.354Z,21.98
2023-04-19T14:55:28.693Z,22.12
2023-04-19T14:57:55.168Z,22.27
2023-04-19T15:00:21.640Z,21.65
2023-04-19T15:02:48.135Z,21.59
2023-04-19T15:05:15.755Z,22.06
2023-04-19T15:07:45.117Z,23.20
2023-04-19T15:10:11.497Z,23.06
2023-04-19T15:12:37.971Z,23.25
2023-04-19T15:15:05.716Z,23.17
2023-04-19T15:17:32.191Z,22.87
2023-04-19T15:19:58.799Z,22.88
2023-04-19T15:22:25.378Z,23.41
2023-04-19T15:24:51.769Z,23.90
2023-04-19T15:27:18.108Z,22.98
2023-04-19T15:29:47.234Z,22.87
2023-04-19T15:32:13.667Z,22.28
2023-04-19T15:34:40.098Z,23.45
2023-04-19T15:37:07.992Z,23.47
2023-04-19T15:39:34.419Z,23.15
2023-04-19T15:42:01.933Z,22.93
2023-04-19T15:44:28.289Z,23.28
2023-04-19T15:46:56.336Z,23.03
2023-04-19T15:49:22.934Z,22.92
2023-04-19T15:51:49.348Z,22.56
2023-04-19T15:54:16.093Z,22.29
2023-04-19T15:56:42.494Z,23.05
2023-04-19T15:59:08.816Z,23.79
2023-04-19T16:01:36.125Z,23.31
2023-04-19T16:04:04.006Z,23.44
2023-04-19T16:06:30.533Z,23.43
2023-04-19T16:08:57.063Z,23.98
2023-04-19T16:11:23.491Z,23.88
2023-04-19T16:13:49.916Z,23.86
2023-04-19T16:16:16.430Z,23.42
2023-04-19T16:18:43.256Z,23.57
2023-04-19T16:21:10.591Z,23.11
2023-04-19T16:23:37.064Z,22.76
2023-04-19T16:26:03.617Z,23.50
2023-04-19T16:28:30.053Z,23.22
2023-04-19T16:30:57.097Z,22.23
2023-04-19T16:33:23.745Z,22.36
2023-04-19T16:35:50.195Z,21.83
2023-04-19T16:38:16.836Z,21.76
2023-04-19T16:40:46.100Z,21.36
2023-04-19T16:43:12.555Z,21.10
2023-04-19T16:45:39.044Z,20.78
2023-04-19T16:48:05.584Z,20.92
2023-04-19T16:50:32.090Z,20.89
2023-04-19T16:52:58.459Z,21.44
2023-04-19T16:55:25.023Z,21.19
2023-04-19T16:57:53.615Z,21.05
2023-04-19T17:00:20.299Z,20.51
2023-04-19T17:02:48.114Z,21.04
2023-04-19T17:05:15.971Z,21.45
2023-04-19T17:07:43.467Z,21.01
2023-04-19T17:10:10.165Z,20.31
2023-04-19T17:12:36.692Z,20.28
2023-04-19T17:15:03.639Z,20.33
2023-04-19T17:17:30.034Z,20.25
2023-04-19T17:19:57.502Z,20.31
2023-04-19T17:22:23.939Z,20.44
2023-04-19T17:24:50.404Z,20.65
2023-04-19T17:27:16.814Z,20.62
2023-04-19T17:29:43.154Z,20.44
2023-04-19T17:32:09.596Z,19.82
2023-04-19T17:34:37.080Z,20.09
2023-04-19T17:37:04.049Z,20.14
2023-04-19T17:39:30.578Z,20.03
2023-04-19T17:41:56.966Z,19.75
2023-04-19T17:44:23.487Z,20.09
2023-04-19T17:46:49.914Z,19.70
2023-04-19T17:49:18.854Z,19.80
2023-04-19T17:51:46.169Z,19.48
2023-04-19T17:54:12.526Z,19.52
2023-04-19T17:56:38.940Z,19.67
2023-04-19T17:59:05.354Z,19.71
2023-04-19T18:01:33.406Z,19.32
2023-04-19T18:03:59.959Z,19.23
2023-04-19T18:06:27.115Z,19.17
2023-04-19T18:08:53.476Z,19.12
2023-04-19T18:11:19.849Z,18.99
2023-04-19T18:13:46.189Z,18.82
2023-04-19T18:16:13.438Z,18.65
2023-04-19T18:18:39.827Z,18.98
2023-04-19T18:21:06.483Z,19.11
2023-04-19T18:23:32.808Z,18.54
2023-04-19T18:26:02.832Z,19.02
2023-04-19T18:28:29.584Z,18.97
2023-04-19T18:30:56.111Z,18.89
2023-04-19T18:33:22.486Z,18.80
2023-04-19T18:35:48.911Z,18.57
2023-04-19T18:38:15.228Z,18.54
2023-04-19T18:40:41.582Z,18.27
2023-04-19T18:43:07.914Z,18.03
2023-04-19T18:45:34.293Z,18.32
2023-04-19T18:48:01.154Z,18.02
2023-04-19T18:50:27.704Z,18.25
2023-04-19T18:52:54.151Z,17.88
2023-04-19T18:55:20.541Z,17.42
2023-04-19T18:57:46.936Z,17.69
2023-04-19T19:00:14.238Z,17.61
2023-04-19T19:02:41.406Z,17.83
2023-04-19T19:05:08.934Z,17.65
2023-04-19T19:07:37.120Z,17.70
2023-04-19T19:10:16.765Z,17.68
2023-04-19T19:12:47.372Z,17.78
2023-04-19T19:15:14.318Z,17.73
2023-04-19T19:17:40.875Z,16.87
2023-04-19T19:20:08.044Z,16.74
2023-04-19T19:22:34.855Z,17.42
2023-04-19T19:25:01.344Z,17.52
2023-04-19T19:27:27.697Z,17.09
2023-04-19T19:29:54.071Z,17.10
2023-04-19T19:32:20.596Z,16.92
2023-04-19T19:34:55.769Z,16.94
2023-04-19T19:37:26.430Z,16.97
2023-04-19T19:39:52.800Z,16.59
2023-04-19T19:42:19.347Z,16.85
2023-04-19T19:44:45.797Z,17.03
2023-04-19T19:47:13.173Z,17.32
2023-04-19T19:52:08.863Z,16.94
2023-04-19T19:54:35.268Z,16.77
2023-04-19T19:59:34.863Z,16.41
2023-04-19T20:02:02.126Z,16.82
2023-04-19T20:04:29.091Z,16.71
2023-04-19T20:09:27.684Z,16.88
2023-04-19T20:11:54.274Z,16.57
2023-04-19T20:14:23.607Z,16.80
2023-04-19T20:16:50.477Z,16.66
2023-04-19T20:19:18.094Z,16.45
2023-04-19T20:21:44.808Z,16.67
2023-04-19T20:24:12.297Z,16.71
2023-04-19T20:26:39.924Z,16.21
2023-04-19T20:29:06.601Z,16.47
2023-04-19T20:31:32.988Z,16.01
2023-04-19T20:33:59.305Z,16.09
2023-04-19T20:36:27.469Z,16.07
2023-04-19T20:38:53.886Z,15.94
2023-04-19T20:41:22.052Z,16.03
2023-04-19T20:43:48.374Z,15.60
2023-04-19T20:46:14.877Z,15.88
2023-04-19T20:48:41.234Z,14.97
2023-04-19T20:51:07.640Z,15.83
2023-04-19T20:53:34.310Z,16.00
2023-04-19T20:56:02.621Z,15.73
2023-04-19T20:58:28.995Z,15.97
2023-04-19T21:00:55.454Z,15.45
2023-04-19T21:03:21.957Z,15.79
2023-04-19T21:05:48.453Z,15.62
2023-04-19T21:08:15.974Z,15.47
2023-04-19T21:10:42.377Z,15.75
2023-04-19T21:13:08.727Z,15.76
2023-04-19T21:15:36.786Z,15.79
2023-04-19T21:18:03.444Z,15.84
2023-04-19T21:20:29.855Z,15.61
2023-04-19T21:22:56.165Z,15.33
2023-04-19T21:25:23.293Z,14.78
2023-04-19T21:27:49.674Z,15.20
2023-04-19T21:30:16.183Z,15.17
2023-04-19T21:32:42.715Z,15.09
2023-04-19T21:35:09.389Z,15.08
2023-04-19T21:37:36.597Z,15.46
2023-04-19T21:40:03.031Z,15.24
2023-04-19T21:42:29.367Z,14.66
2023-04-19T21:44:55.842Z,14.93
2023-04-19T21:47:22.395Z,15.02
2023-04-19T21:49:50.114Z,15.16
2023-04-19T21:52:16.657Z,14.96
2023-04-19T21:54:43.035Z,14.65
2023-04-19T21:57:10.712Z,14.61
2023-04-19T21:59:37.617Z,14.50
2023-04-19T22:02:04.248Z,13.76
2023-04-19T22:04:31.090Z,14.14
2023-04-19T22:07:02.422Z,14.03
2023-04-19T22:09:29.886Z,13.84
2023-04-19T22:11:56.276Z,13.43
2023-04-19T22:14:25.504Z,13.40
2023-04-19T22:16:53.724Z,12.94
2023-04-19T22:19:20.166Z,13.07
2023-04-19T22:21:46.764Z,12.64
2023-04-19T22:24:13.127Z,12.85
2023-04-19T22:26:39.463Z,13.02
2023-04-19T22:29:05.863Z,12.98
2023-04-19T22:31:32.212Z,13.13
2023-04-19T22:33:58.664Z,13.62
2023-04-19T22:36:25.082Z,13.68
2023-04-19T22:38:51.409Z,14.16
2023-04-19T22:41:17.738Z,13.34
2023-04-19T22:43:44.075Z,13.99
2023-04-19T22:46:10.608Z,14.00
2023-04-19T22:48:37.128Z,13.94
2023-04-19T22:51:03.690Z,14.16
2023-04-19T22:53:30.187Z,13.64
2023-04-19T22:55:56.639Z,13.03
2023-04-19T22:58:23.134Z,13.27
2023-04-19T23:00:49.774Z,13.22
2023-04-19T23:03:16.502Z,13.21
2023-04-19T23:05:43.074Z,13.05
2023-04-19T23:08:09.504Z,13.30
2023-04-19T23:10:38.130Z,13.50
2023-04-19T23:13:05.790Z,13.39
2023-04-19T23:15:33.351Z,12.45
2023-04-19T23:18:02.063Z,12.84
2023-04-19T23:20:28.975Z,12.94
2023-04-19T23:22:55.547Z,11.89
2023-04-19T23:25:21.996Z,12.52
2023-04-19T23:27:50.314Z,12.52
2023-04-19T23:30:17.492Z,12.63
2023-04-19T23:32:43.878Z,12.37
2023-04-19T23:35:10.358Z,12.25
2023-04-19T23:37:37.672Z,12.36
2023-04-19T23:40:08.202Z,12.34
2023-04-19T23:42:34.661Z,12.28
2023-04-19T23:45:01.082Z,11.76
2023-04-19T23:47:27.461Z,11.84
2023-04-19T23:49:53.896Z,11.86
2023-04-19T23:52:22.549Z,11.73
2023-04-19T23:54:49.616Z,11.53
2023-04-19T23:57:16.045Z,11.79
2023-04-19T23:59:42.384Z,11.71
